Time;durP1;ratioP1;P1;durP2;ratioP2;P2;SDS_P1;SDS_P2;PMS_P1;PMS_P2;Temp;Humidity;BMP_temperature;BMP_pressure;BME280_temperature;BME280_humidity;BME280_pressure;Samples;Min_cycle;Max_cycle;Signal;HPM_P1;HPM_P2
2023/10/24 00:00:33;;;;;;;3.55;1.40;;;;;;;17.67;100.00;100196.94;5074437;28;20591;-77
2023/10/24 00:02:59;;;;;;;3.80;1.38;;;;;;;17.79;100.00;100212.53;5072228;28;20245;-76
2023/10/24 00:05:27;;;;;;;3.58;1.20;;;;;;;17.74;100.00;100214.34;5071685;28;20225;-77
2023/10/24 00:07:54;;;;;;;2.60;1.00;;;;;;;17.66;100.00;100203.94;5073348;28;20654;-77
2023/10/24 00:10:23;;;;;;;2.78;1.27;;;;;;;17.67;100.00;100213.53;5086277;28;20641;-77
2023/10/24 00:12:50;;;;;;;4.40;1.40;;;;;;;17.61;100.00;100207.50;5073966;28;20195;-78
2023/10/24 00:15:17;;;;;;;3.78;1.05;;;;;;;17.60;100.00;100208.38;5092562;28;20206;-77
2023/10/24 00:17:44;;;;;;;1.83;0.98;;;;;;;17.59;100.00;100204.00;5094472;28;20228;-77
2023/10/24 00:20:11;;;;;;;3.58;1.25;;;;;;;17.46;100.00;100182.28;5095622;28;20194;-78
2023/10/24 00:22:38;;;;;;;4.13;1.20;;;;;;;17.56;100.00;100201.41;5045294;28;20198;-77
2023/10/24 00:25:06;;;;;;;2.63;1.08;;;;;;;17.57;100.00;100208.41;5093559;28;20212;-77
2023/10/24 00:27:34;;;;;;;3.65;1.10;;;;;;;17.58;100.00;100207.53;5093370;28;20209;-78
2023/10/24 00:30:01;;;;;;;2.45;1.50;;;;;;;17.53;100.00;100207.56;5091931;28;20209;-78
2023/10/24 00:32:28;;;;;;;4.55;1.25;;;;;;;17.54;100.00;100205.81;5076221;28;20199;-79
2023/10/24 00:34:55;;;;;;;3.83;1.20;;;;;;;17.52;100.00;100207.56;5081203;28;20193;-78
2023/10/24 00:37:21;;;;;;;3.30;1.23;;;;;;;17.03;100.00;100119.00;5085561;28;20593;-77
2023/10/24 00:39:48;;;;;;;5.68;2.22;;;;;;;17.55;100.00;100204.94;5075301;28;20662;-77
2023/10/24 00:42:15;;;;;;;6.28;2.10;;;;;;;17.42;100.00;100190.19;5068708;28;20206;-78
2023/10/24 00:44:43;;;;;;;2.83;1.05;;;;;;;17.45;100.00;100190.16;5091719;28;20626;-78
2023/10/24 00:47:10;;;;;;;1.63;0.90;;;;;;;17.53;100.00;100204.06;5088084;28;20209;-77
2023/10/24 00:49:38;;;;;;;2.33;1.10;;;;;;;17.45;100.00;100187.53;5095107;28;20688;-78
2023/10/24 00:52:05;;;;;;;4.75;1.42;;;;;;;17.58;100.00;100212.78;5080634;28;20285;-78
2023/10/24 00:54:34;;;;;;;3.22;1.10;;;;;;;17.57;100.00;100213.66;5056317;28;20208;-76
2023/10/24 00:57:03;;;;;;;2.22;0.95;;;;;;;17.51;100.00;100201.47;5090745;28;20225;-78
2023/10/24 00:59:31;;;;;;;3.22;1.02;;;;;;;17.49;100.00;100192.75;5083561;28;20206;-77
2023/10/24 01:01:59;;;;;;;3.30;1.10;;;;;;;17.44;100.00;100196.31;5090983;28;20195;-78
2023/10/24 01:04:26;;;;;;;4.13;1.20;;;;;;;17.40;100.00;100205.97;5085252;28;20662;-78
2023/10/24 01:06:53;;;;;;;3.10;1.05;;;;;;;17.33;100.00;100206.91;5094900;28;20216;-77
2023/10/24 01:09:19;;;;;;;1.90;0.90;;;;;;;17.37;100.00;100218.22;5088721;28;20666;-78
2023/10/24 01:11:49;;;;;;;3.15;1.17;;;;;;;17.25;100.00;100193.88;5083529;28;20213;-77
2023/10/24 01:14:16;;;;;;;3.85;1.15;;;;;;;17.35;100.00;100213.88;5093107;28;20195;-78
2023/10/24 01:16:43;;;;;;;1.75;0.90;;;;;;;17.35;100.00;100208.63;5077199;28;20203;-78
2023/10/24 01:19:12;;;;;;;3.50;1.23;;;;;;;17.35;100.00;100203.38;5057177;28;20265;-78
2023/10/24 01:21:44;;;;;;;3.55;1.13;;;;;;;17.40;100.00;100210.34;5074386;28;20252;-77
2023/10/24 01:24:11;;;;;;;2.95;1.80;;;;;;;17.35;100.00;100200.75;5053974;28;20203;-77
2023/10/24 01:26:39;;;;;;;3.00;1.02;;;;;;;17.26;100.00;100190.38;5060061;28;20199;-78
2023/10/24 01:29:06;;;;;;;2.60;1.42;;;;;;;17.19;100.00;100182.59;5074362;28;20655;-77
2023/10/24 01:31:33;;;;;;;5.65;1.52;;;;;;;17.17;100.00;100187.84;5090157;28;20234;-78
2023/10/24 01:34:00;;;;;;;3.60;1.20;;;;;;;17.26;100.00;100200.00;5075907;28;20278;-77
2023/10/24 01:36:26;;;;;;;3.50;1.10;;;;;;;17.25;100.00;100199.13;5094291;28;20202;-79
2023/10/24 01:38:55;;;;;;;1.42;0.88;;;;;;;17.16;100.00;100172.13;5093115;28;20221;-78
2023/10/24 01:41:21;;;;;;;2.55;1.00;;;;;;;17.25;100.00;100193.88;5088330;28;20206;-78
2023/10/24 01:43:48;;;;;;;3.33;1.20;;;;;;;17.25;100.00;100195.63;5083883;28;20202;-78
2023/10/24 01:46:16;;;;;;;4.13;1.23;;;;;;;16.93;100.00;100153.16;5092547;28;20205;-78
2023/10/24 01:48:43;;;;;;;1.35;1.08;;;;;;;17.14;100.00;100185.25;5092512;28;20202;-78
2023/10/24 01:51:10;;;;;;;4.57;2.08;;;;;;;17.17;100.00;100190.47;5081318;28;20202;-77
2023/10/24 01:53:37;;;;;;;2.65;1.20;;;;;;;16.98;100.00;100169.72;5084492;28;20190;-78
2023/10/24 01:56:05;;;;;;;1.55;0.90;;;;;;;17.14;100.00;100185.25;5094036;28;20202;-79
2023/10/24 01:58:32;;;;;;;3.13;1.10;;;;;;;17.11;100.00;100184.41;5090636;28;20233;-78
2023/10/24 02:00:59;;;;;;;2.60;1.10;;;;;;;17.11;100.00;100179.19;5018462;28;20679;-77
2023/10/24 02:03:25;;;;;;;3.08;1.38;;;;;;;17.06;100.00;100180.97;5093103;28;20638;-78
2023/10/24 02:05:52;;;;;;;3.22;1.10;;;;;;;17.05;100.00;100180.09;5081816;28;20651;-78
2023/10/24 02:08:19;;;;;;;4.55;1.50;;;;;;;17.08;100.00;100182.72;5070429;28;20206;-78
2023/10/24 02:10:46;;;;;;;1.90;0.93;;;;;;;16.92;100.00;100164.50;5074960;28;20591;-77
2023/10/24 02:13:14;;;;;;;4.22;1.20;;;;;;;17.12;100.00;100192.25;5078527;28;20194;-77
2023/10/24 02:15:41;;;;;;;4.57;1.65;;;;;;;17.06;100.00;100189.69;5088750;28;20734;-78
2023/10/24 02:18:08;;;;;;;2.83;1.02;;;;;;;17.00;100.00;100195.00;5055195;28;20217;-78
2023/10/24 02:20:34;;;;;;;1.73;1.38;;;;;;;16.49;100.00;100111.63;5073620;28;20685;-78
2023/10/24 02:23:01;;;;;;;3.13;1.35;;;;;;;16.95;100.00;100193.28;5088691;28;20207;-78
2023/10/24 02:25:28;;;;;;;2.72;1.17;;;;;;;16.96;100.00;100222.09;5093756;28;20201;-78
2023/10/24 02:27:55;;;;;;;3.15;1.10;;;;;;;16.87;100.00;100201.25;5078015;28;20191;-77
2023/10/24 02:30:23;;;;;;;1.73;0.90;;;;;;;16.92;100.00;100209.03;5073261;28;20223;-77
2023/10/24 02:32:50;;;;;;;3.58;1.20;;;;;;;16.72;100.00;100183.03;5083702;28;20198;-78
2023/10/24 02:35:17;;;;;;;4.22;1.35;;;;;;;16.74;100.00;100194.34;5092696;28;20252;-78
2023/10/24 02:37:44;;;;;;;3.05;2.00;;;;;;;16.65;100.00;100181.34;5085427;28;20635;-78
2023/10/24 02:40:12;;;;;;;3.00;1.35;;;;;;;16.74;100.00;100210.06;5093512;28;20700;-77
2023/10/24 02:42:38;;;;;;;4.13;1.50;;;;;;;16.54;100.00;100188.38;5081888;28;20198;-77
2023/10/24 02:45:06;;;;;;;3.95;1.50;;;;;;;16.64;100.00;100219.75;5074415;28;20603;-78
2023/10/24 02:47:34;;;;;;;2.40;1.30;;;;;;;16.61;100.00;100224.13;5091390;28;20587;-78
2023/10/24 02:50:01;;;;;;;2.65;1.55;;;;;;;16.47;100.00;100220.72;5092746;28;20221;-78
2023/10/24 02:52:29;;;;;;;3.30;1.48;;;;;;;16.43;100.00;100229.47;5086803;28;20198;-78
2023/10/24 02:54:55;;;;;;;1.85;1.10;;;;;;;16.40;100.00;100229.47;5038081;28;20198;-77
2023/10/24 02:57:22;;;;;;;3.67;1.30;;;;;;;16.36;100.00;100226.88;5073570;28;20203;-78
2023/10/24 02:59:49;;;;;;;3.38;1.92;;;;;;;16.27;100.00;100213.84;5091587;28;20217;-78
2023/10/24 03:02:16;;;;;;;3.88;1.52;;;;;;;16.27;100.00;100224.31;5077244;28;20234;-79
2023/10/24 03:04:44;;;;;;;5.35;2.85;;;;;;;16.24;100.00;100223.47;5054409;28;20211;-77
2023/10/24 03:07:11;;;;;;;1.38;1.10;;;;;;;16.21;100.00;100218.25;5072487;28;20209;-77
2023/10/24 03:09:38;;;;;;;1.85;1.23;;;;;;;16.17;100.00;100217.41;5073439;28;20191;-77
2023/10/24 03:12:09;;;;;;;4.93;2.75;;;;;;;15.98;100.00;100189.59;5085224;28;20202;-77
2023/10/24 03:14:36;;;;;;;10.73;2.65;;;;;;;16.12;100.00;100213.09;5075525;28;20298;-77
2023/10/24 03:17:03;;;;;;;1.63;1.10;;;;;;;16.16;100.00;100223.50;5083566;28;20198;-77
2023/10/24 03:19:32;;;;;;;4.72;1.20;;;;;;;16.19;100.00;100223.50;5090678;28;20592;-78
2023/10/24 03:22:00;;;;;;;3.15;1.98;;;;;;;16.25;100.00;100231.31;5071799;28;20275;-78
2023/10/24 03:24:29;;;;;;;2.95;1.42;;;;;;;16.27;100.00;100234.78;5056421;28;20199;-78
2023/10/24 03:26:56;;;;;;;2.42;1.08;;;;;;;16.27;100.00;100232.16;5072514;28;20229;-77
2023/10/24 03:29:22;;;;;;;3.08;1.17;;;;;;;16.32;100.00;100243.47;5085396;28;20682;-77
2023/10/24 03:31:49;;;;;;;2.75;1.10;;;;;;;16.26;100.00;100222.59;5091880;28;20654;-77
2023/10/24 03:34:16;;;;;;;4.65;2.13;;;;;;;16.34;100.00;100238.22;5073072;28;20234;-77
2023/10/24 03:36:43;;;;;;;2.80;1.35;;;;;;;16.32;100.00;100240.00;5075934;28;20194;-78
2023/10/24 03:39:11;;;;;;;2.95;1.48;;;;;;;16.41;100.00;100245.16;5092829;28;20234;-78
2023/10/24 03:41:37;;;;;;;5.03;1.50;;;;;;;16.32;100.00;100242.59;5092593;28;20198;-78
2023/10/24 03:44:05;;;;;;;2.90;1.20;;;;;;;16.28;100.00;100239.16;5082327;28;20199;-78
2023/10/24 03:46:31;;;;;;;5.05;1.75;;;;;;;16.22;100.00;100233.06;5073334;28;20206;-78
2023/10/24 03:48:58;;;;;;;2.10;1.05;;;;;;;16.23;100.00;100237.44;5088679;28;20260;-78
2023/10/24 03:51:25;;;;;;;11.32;2.13;;;;;;;16.20;100.00;100237.44;5085722;28;20199;-79
2023/10/24 03:53:53;;;;;;;1.80;1.00;;;;;;;16.17;100.00;100232.22;5083458;28;20666;-79
2023/10/24 03:56:21;;;;;;;5.72;1.58;;;;;;;16.06;100.00;100200.88;5071151;28;20237;-77
2023/10/24 03:58:47;;;;;;;3.65;1.35;;;;;;;16.08;100.00;100212.22;5079113;28;20593;-77
2023/10/24 04:01:14;;;;;;;3.75;2.00;;;;;;;16.20;100.00;100233.06;5091684;28;20681;-77
2023/10/24 04:03:41;;;;;;;3.22;1.33;;;;;;;16.22;100.00;100241.81;5091523;28;20202;-76
2023/10/24 04:06:11;;;;;;;3.92;1.50;;;;;;;16.30;100.00;100240.00;5090554;28;20225;-76
2023/10/24 04:08:38;;;;;;;4.15;1.40;;;;;;;16.16;100.00;100230.50;5072084;28;20260;-77
2023/10/24 04:11:05;;;;;;;6.72;1.73;;;;;;;16.21;100.00;100240.06;5088073;28;20199;-76
2023/10/24 04:13:33;;;;;;;3.25;1.30;;;;;;;16.23;100.00;100248.75;5074984;28;20205;-77
2023/10/24 04:16:00;;;;;;;1.95;1.00;;;;;;;16.15;100.00;100250.56;5092176;28;20639;-77
2023/10/24 04:18:27;;;;;;;4.93;1.58;;;;;;;16.02;100.00;100233.16;5088115;28;20823;-77
2023/10/24 04:20:54;;;;;;;3.35;1.58;;;;;;;16.07;100.00;100248.84;5092125;28;20229;-78
2023/10/24 04:23:21;;;;;;;9.27;1.50;;;;;;;15.92;100.00;100220.13;5090945;28;20205;-78
2023/10/24 04:25:48;;;;;;;2.45;1.77;;;;;;;16.04;100.00;100243.63;5086567;28;20194;-78
2023/10/24 04:28:15;;;;;;;3.42;1.63;;;;;;;16.01;100.00;100247.13;5090200;28;20281;-78
2023/10/24 04:30:43;;;;;;;3.55;1.45;;;;;;;16.09;100.00;100249.69;5071668;28;20237;-77
2023/10/24 04:33:10;;;;;;;2.78;1.35;;;;;;;15.99;100.00;100254.09;5071414;28;20304;-77
2023/10/24 04:35:46;;;;;;;3.53;1.15;;;;;;;15.94;100.00;100240.19;5071548;28;20202;-76
2023/10/24 04:38:12;;;;;;;2.58;1.33;;;;;;;15.84;100.00;100243.69;5083943;28;20737;-77
2023/10/24 04:40:39;;;;;;;3.15;1.30;;;;;;;15.98;100.00;100261.97;5090443;28;20190;-78
2023/10/24 04:43:06;;;;;;;3.10;1.15;;;;;;;16.00;100.00;100260.22;5088473;28;20206;-77
2023/10/24 04:45:33;;;;;;;3.70;1.30;;;;;;;15.92;100.00;100252.38;5048850;28;20199;-77
2023/10/24 04:48:02;;;;;;;5.15;3.22;;;;;;;16.04;100.00;100267.16;5071230;28;20210;-76
2023/10/24 04:50:29;;;;;;;3.45;1.25;;;;;;;15.96;100.00;100268.94;5053296;28;20728;-76
2023/10/24 04:52:56;;;;;;;3.13;1.42;;;;;;;15.81;100.00;100239.34;5047448;28;20250;-76
2023/10/24 04:55:23;;;;;;;8.15;3.15;;;;;;;16.01;100.00;100273.28;5056125;28;20202;-75
2023/10/24 04:57:50;;;;;;;4.22;1.77;;;;;;;15.80;100.00;100278.59;5088015;28;20194;-78
2023/10/24 05:00:17;;;;;;;3.53;1.35;;;;;;;15.80;100.00;100279.44;5080570;28;20783;-77
2023/10/24 05:02:45;;;;;;;5.57;2.33;;;;;;;15.90;100.00;100280.31;5073665;28;20669;-79
2023/10/24 05:05:13;;;;;;;5.30;2.28;;;;;;;15.99;100.00;100280.25;5086871;28;20285;-79
2023/10/24 05:07:39;;;;;;;5.25;1.77;;;;;;;15.82;100.00;100282.06;5059763;28;20202;-79
2023/10/24 05:10:07;;;;;;;4.20;1.98;;;;;;;16.15;100.00;100297.66;5074384;28;20297;-78
2023/10/24 05:12:34;;;;;;;2.65;1.20;;;;;;;16.19;100.00;100299.38;5086326;28;20191;-79
2023/10/24 05:15:00;;;;;;;8.40;1.88;;;;;;;16.50;100.00;100300.09;5088053;28;20685;-75
2023/10/24 05:17:30;;;;;;;2.47;1.98;;;;;;;16.58;100.00;100316.66;5094046;28;20202;-73
2023/10/24 05:19:57;;;;;;;14.70;2.88;;;;;;;16.12;100.00;100208.72;5091861;28;20240;-76
2023/10/24 05:22:25;;;;;;;2.83;1.17;;;;;;;16.59;100.00;100309.66;5077231;28;20256;-75
2023/10/24 05:24:52;;;;;;;3.70;1.20;;;;;;;16.76;100.00;100315.69;5036064;28;20199;-75
2023/10/24 05:27:19;;;;;;;5.68;2.47;;;;;;;16.92;100.00;100324.28;5067023;28;20203;-79
2023/10/24 05:29:46;;;;;;;3.30;1.38;;;;;;;16.93;100.00;100321.69;5062128;28;20207;-78
2023/10/24 05:32:12;;;;;;;4.93;1.52;;;;;;;17.17;100.00;100342.44;5068772;28;20706;-78
2023/10/24 05:34:39;;;;;;;3.33;2.20;;;;;;;17.11;100.00;100344.25;5060737;28;20206;-81
2023/10/24 05:37:06;;;;;;;3.42;1.08;;;;;;;17.31;100.00;100376.41;5064672;28;20332;-79
2023/10/24 05:39:34;;;;;;;4.40;1.98;;;;;;;17.28;100.00;100361.59;5077513;28;20329;-80
2023/10/24 05:42:01;;;;;;;8.70;2.67;;;;;;;17.36;100.00;100358.91;5042605;28;20681;-80
2023/10/24 05:44:28;;;;;;;6.25;1.92;;;;;;;17.40;100.00;100346.63;5043017;28;20198;-79
2023/10/24 05:46:54;;;;;;;3.28;1.23;;;;;;;17.43;100.00;100336.13;5061939;28;20217;-83
2023/10/24 05:49:21;;;;;;;2.83;1.52;;;;;;;17.44;100.00;100338.75;5074413;28;20230;-76
2023/10/24 05:51:48;;;;;;;4.00;1.88;;;;;;;17.33;100.00;100317.88;5074157;28;20199;-79
2023/10/24 05:54:15;;;;;;;4.35;1.55;;;;;;;17.46;100.00;100349.19;5069302;28;20257;-79
2023/10/24 05:56:43;;;;;;;8.02;2.33;;;;;;;17.52;100.00;100347.38;5063911;28;20199;-80
2023/10/24 05:59:10;;;;;;;5.28;2.05;;;;;;;17.33;100.00;100317.88;5073281;28;20694;-80
2023/10/24 06:01:36;;;;;;;4.35;2.15;;;;;;;17.45;100.00;100334.34;5073385;28;20207;-77
2023/10/24 06:04:03;;;;;;;6.82;1.92;;;;;;;17.57;100.00;100355.25;5073444;28;20206;-79
2023/10/24 06:06:30;;;;;;;5.03;1.50;;;;;;;17.62;100.00;100366.59;5058933;28;20200;-78
2023/10/24 06:08:57;;;;;;;4.00;1.52;;;;;;;17.60;100.00;100368.34;5057203;28;20195;-84
2023/10/24 06:11:24;;;;;;;2.65;1.80;;;;;;;17.51;100.00;100369.28;5028199;28;20633;-80
2023/10/24 06:13:52;;;;;;;3.67;1.35;;;;;;;17.48;100.00;100336.97;5065672;28;20596;-86
2023/10/24 06:16:19;;;;;;;16.33;2.97;;;;;;;17.57;100.00;100365.75;5071678;28;20226;-78
2023/10/24 06:18:46;;;;;;;4.10;1.63;;;;;;;17.35;100.00;100334.44;5045832;28;20203;-76
2023/10/24 06:21:13;;;;;;;2.30;1.20;;;;;;;17.44;100.00;100377.19;5060733;28;20202;-79
2023/10/24 06:23:40;;;;;;;5.55;2.45;;;;;;;17.48;100.00;100373.66;5066968;28;20195;-77
2023/10/24 06:26:13;;;;;;;5.05;1.70;;;;;;;17.52;100.00;100372.75;5065648;28;20593;-79
2023/10/24 06:28:39;;;;;;;5.25;1.58;;;;;;;17.51;100.00;100373.63;5060556;28;20231;-80
2023/10/24 06:31:08;;;;;;;3.58;1.60;;;;;;;17.61;100.00;100370.97;5072485;28;20624;-77
2023/10/24 06:33:34;;;;;;;1.58;1.15;;;;;;;17.73;100.00;100369.94;5073081;28;20195;-80
2023/10/24 06:36:01;;;;;;;7.53;2.30;;;;;;;17.91;100.00;100371.56;5072951;28;20198;-78
2023/10/24 06:38:28;;;;;;;2.95;1.23;;;;;;;17.79;100.00;100360.31;5037397;28;20206;-77
2023/10/24 06:40:55;;;;;;;4.57;1.90;;;;;;;17.91;100.00;100375.03;5072946;28;20226;-79
2023/10/24 06:43:23;;;;;;;4.00;2.00;;;;;;;18.02;100.00;100373.16;5072864;28;20272;-78
2023/10/24 06:45:50;;;;;;;3.95;1.45;;;;;;;18.19;100.00;100370.38;5071225;28;20201;-83
2023/10/24 06:48:20;;;;;;;3.92;1.25;;;;;;;18.21;100.00;100369.47;5056646;28;20203;-78
2023/10/24 06:50:47;;;;;;;3.05;1.02;;;;;;;18.16;100.00;100363.38;5058966;28;20206;-77
2023/10/24 06:53:13;;;;;;;3.88;1.38;;;;;;;18.03;100.00;100364.41;5055408;28;20204;-79
2023/10/24 06:55:41;;;;;;;2.47;1.30;;;;;;;18.26;100.00;100361.53;5063979;28;20206;-78
2023/10/24 06:58:08;;;;;;;9.13;2.47;;;;;;;18.32;100.00;100356.22;5060490;28;20206;-76
2023/10/24 07:00:34;;;;;;;4.90;1.65;;;;;;;18.38;100.00;100355.25;5029448;28;20218;-77
2023/10/24 07:03:01;;;;;;;4.70;1.67;;;;;;;18.43;100.00;100356.06;5052164;28;20638;-78
2023/10/24 07:05:29;;;;;;;4.57;2.03;;;;;;;18.51;100.00;100359.50;5056394;28;20221;-76
2023/10/24 07:07:57;;;;;;;3.15;1.20;;;;;;;18.64;100.00;100358.47;5052239;28;20218;-78
2023/10/24 07:10:23;;;;;;;6.97;2.03;;;;;;;18.77;100.00;100354.75;5058769;28;20358;-78
2023/10/24 07:12:50;;;;;;;5.32;1.35;;;;;;;18.79;100.00;100342.50;5071984;28;20205;-78
2023/10/24 07:15:17;;;;;;;3.45;1.52;;;;;;;18.67;100.00;100311.13;5071983;28;20209;-78
2023/10/24 07:17:44;;;;;;;4.53;1.90;;;;;;;19.02;100.00;100356.16;5057842;28;20198;-76
2023/10/24 07:20:12;;;;;;;8.65;2.42;;;;;;;19.12;100.00;100349.84;5019944;28;20671;-76
2023/10/24 07:22:40;;;;;;;6.75;2.30;;;;;;;18.84;100.00;100351.16;5053451;28;20203;-76
2023/10/24 07:25:07;;;;;;;3.08;1.60;;;;;;;18.60;100.00;100352.38;5061797;28;20265;-77
2023/10/24 07:27:34;;;;;;;3.90;2.30;;;;;;;18.67;100.00;100335.66;5071949;28;20202;-76
2023/10/24 07:30:01;;;;;;;3.60;1.50;;;;;;;18.52;100.00;100348.09;5069584;28;20249;-77
2023/10/24 07:32:28;;;;;;;3.72;2.78;;;;;;;18.61;100.00;100316.47;5037227;28;20655;-79
2023/10/24 07:34:56;;;;;;;3.85;2.05;;;;;;;19.05;100.00;100350.84;5072469;28;20594;-77
2023/10/24 07:37:23;;;;;;;4.40;1.85;;;;;;;18.94;100.00;100328.25;5037592;28;20199;-78
2023/10/24 07:39:52;;;;;;;5.32;1.90;;;;;;;19.36;100.00;100345.97;5072347;28;20250;-78
2023/10/24 07:42:18;;;;;;;2.92;1.23;;;;;;;19.37;100.00;100317.94;5071908;28;20202;-78
2023/10/24 07:44:45;;;;;;;2.67;1.10;;;;;;;19.56;100.00;100343.03;5072871;28;20198;-78
2023/10/24 07:47:12;;;;;;;3.60;1.52;;;;;;;19.74;100.00;100338.31;5038325;28;20198;-76
2023/10/24 07:49:39;;;;;;;4.18;1.67;;;;;;;19.96;100.00;100330.91;5073004;28;20205;-76
2023/10/24 07:52:06;;;;;;;5.75;1.60;;;;;;;19.93;100.00;100343.25;5071705;28;20195;-77
2023/10/24 07:54:33;;;;;;;2.67;1.25;;;;;;;20.08;100.00;100335.91;5067158;28;20211;-77
2023/10/24 07:57:02;;;;;;;5.00;2.28;;;;;;;20.30;100.00;100343.44;5072348;28;20617;-78
2023/10/24 07:59:29;;;;;;;3.58;2.65;;;;;;;20.36;100.00;100333.63;5064085;28;20227;-78
2023/10/24 08:01:56;;;;;;;3.22;1.35;;;;;;;20.48;100.00;100341.28;5061120;28;20194;-82
2023/10/24 08:04:23;;;;;;;7.65;2.08;;;;;;;20.26;100.00;100340.81;5063476;28;20217;-81
2023/10/24 08:06:50;;;;;;;4.25;1.85;;;;;;;20.22;100.00;100331.25;5062981;28;20237;-84
2023/10/24 08:09:17;;;;;;;7.13;2.75;;;;;;;20.43;100.00;100334.38;5056477;28;20204;-80
2023/10/24 08:11:43;;;;;;;2.58;0.90;;;;;;;20.15;100.00;100324.38;5036570;28;20842;-79
2023/10/24 08:14:13;;;;;;;2.65;1.35;;;;;;;20.49;100.00;100318.44;5071474;28;20658;-79
2023/10/24 08:16:40;;;;;;;4.15;1.30;;;;;;;20.50;100.00;100314.91;5073433;28;20568;-81
2023/10/24 08:19:06;;;;;;;7.95;1.75;;;;;;;20.51;99.88;100290.31;5071272;28;20202;-81
2023/10/24 08:21:33;;;;;;;4.47;1.40;;;;;;;20.72;99.08;100310.91;5066015;28;20239;-80
2023/10/24 08:24:00;;;;;;;1.48;1.02;;;;;;;20.81;99.08;100309.81;5052499;28;20674;-79
2023/10/24 08:26:27;;;;;;;2.67;1.08;;;;;;;20.87;95.20;100304.41;5031656;28;20252;-78
2023/10/24 08:28:54;;;;;;;2.22;1.52;;;;;;;20.67;94.87;100302.22;5053322;28;20206;-79
2023/10/24 08:31:22;;;;;;;2.35;1.10;;;;;;;20.00;94.86;100214.13;5071800;28;20238;-78
2023/10/24 08:33:49;;;;;;;2.65;1.70;;;;;;;20.60;95.23;100301.50;5072695;28;20273;-78
2023/10/24 08:36:16;;;;;;;4.68;1.60;;;;;;;20.47;92.61;100262.28;5076597;28;20199;-78
2023/10/24 08:38:43;;;;;;;2.58;1.10;;;;;;;20.83;92.14;100295.72;5075970;28;20205;-78
2023/10/24 08:41:09;;;;;;;3.05;1.52;;;;;;;20.93;91.94;100294.59;5075917;28;20333;-78
2023/10/24 08:43:37;;;;;;;4.72;1.45;;;;;;;20.94;91.88;100290.19;5076005;28;20206;-78
2023/10/24 08:46:05;;;;;;;2.90;1.23;;;;;;;20.95;92.21;100297.16;5075731;28;20206;-78
2023/10/24 08:48:34;;;;;;;3.85;1.23;;;;;;;21.14;92.49;100296.72;5075543;28;20202;-78
2023/10/24 08:51:01;;;;;;;3.25;1.25;;;;;;;21.14;89.86;100287.94;5075761;28;20234;-78
2023/10/24 08:53:28;;;;;;;2.40;1.15;;;;;;;20.96;89.82;100289.22;5040045;28;20567;-75
2023/10/24 08:55:57;;;;;;;1.67;1.00;;;;;;;21.04;91.71;100281.16;5075034;28;20206;-78
2023/10/24 08:58:24;;;;;;;4.05;1.92;;;;;;;21.12;91.20;100272.16;5075636;28;20235;-77
2023/10/24 09:00:52;;;;;;;3.97;1.38;;;;;;;21.29;90.70;100262.97;5075496;28;20714;-78
2023/10/24 09:03:19;;;;;;;5.38;2.35;;;;;;;21.31;89.04;100242.69;5075382;28;20593;-78
2023/10/24 09:05:48;;;;;;;1.88;0.90;;;;;;;21.68;86.93;100281.25;5075853;28;20260;-78
2023/10/24 09:08:16;;;;;;;4.05;2.08;;;;;;;21.72;85.55;100277.59;5040672;28;20574;-78
2023/10/24 09:10:43;;;;;;;6.15;2.40;;;;;;;21.81;85.59;100286.19;5075805;28;20290;-78
2023/10/24 09:13:10;;;;;;;2.78;1.13;;;;;;;21.91;85.16;100285.91;5056218;28;20572;-79
2023/10/24 09:15:37;;;;;;;3.35;1.23;;;;;;;21.81;85.02;100255.38;5075180;28;20191;-78
2023/10/24 09:18:05;;;;;;;3.30;1.35;;;;;;;22.09;85.05;100276.59;5075360;28;20281;-77
2023/10/24 09:20:33;;;;;;;6.82;2.67;;;;;;;22.07;84.45;100263.47;5074245;28;20267;-78
2023/10/24 09:23:08;;;;;;;1.65;1.38;;;;;;;22.28;82.47;100271.66;5074441;28;20198;-78
2023/10/24 09:25:36;;;;;;;3.35;1.92;;;;;;;22.36;82.49;100273.16;5075160;28;20662;-78
2023/10/24 09:28:16;;;;;;;3.38;2.28;;;;;;;22.47;82.33;100263.16;5075770;28;20222;-78
2023/10/24 09:30:43;;;;;;;2.88;1.95;;;;;;;22.41;81.90;100236.88;5072693;28;20671;-81
2023/10/24 09:33:10;;;;;;;4.90;1.88;;;;;;;22.44;82.56;100250.00;5063765;28;20204;-81
2023/10/24 09:35:37;;;;;;;4.70;1.48;;;;;;;22.53;82.26;100272.66;5058191;28;20222;-81
2023/10/24 09:38:08;;;;;;;5.28;1.65;;;;;;;22.77;80.30;100266.63;5073833;28;20202;-80
2023/10/24 09:40:36;;;;;;;5.32;2.63;;;;;;;22.58;79.67;100249.59;5060649;28;20229;-81
2023/10/24 09:43:11;;;;;;;5.95;2.80;;;;;;;22.48;79.07;100216.41;5074213;28;20288;-81
2023/10/24 09:45:42;;;;;;;4.10;1.27;;;;;;;22.92;78.77;100239.69;5068453;28;20256;-80
2023/10/24 09:48:11;;;;;;;7.30;1.88;;;;;;;23.10;77.32;100241.72;5054309;28;20223;-82
2023/10/24 09:50:39;;;;;;;4.38;1.95;;;;;;;23.04;76.91;100230.50;5071995;28;20592;-81
2023/10/24 09:53:08;;;;;;;4.97;3.50;;;;;;;23.22;76.82;100233.34;5074441;28;20234;-81
2023/10/24 09:55:36;;;;;;;4.00;1.40;;;;;;;23.36;74.83;100229.38;5074337;28;20307;-81
2023/10/24 09:58:04;;;;;;;7.97;1.85;;;;;;;23.41;74.26;100203.59;5074115;28;20226;-81
2023/10/24 10:00:31;;;;;;;5.68;2.40;;;;;;;23.54;74.09;100223.47;5074252;28;20295;-81
2023/10/24 10:03:00;;;;;;;6.15;1.77;;;;;;;23.68;73.96;100221.19;5074187;28;20652;-81
2023/10/24 10:05:30;;;;;;;6.10;2.42;;;;;;;23.77;73.38;100222.63;5061141;28;20682;-80
2023/10/24 10:07:58;;;;;;;8.55;2.17;;;;;;;23.73;72.44;100207.78;5073660;28;20190;-83
2023/10/24 10:10:26;;;;;;;12.20;2.25;;;;;;;23.86;72.75;100225.81;5065357;28;20582;-80
2023/10/24 10:13:00;;;;;;;8.32;2.15;;;;;;;23.91;73.00;100218.56;5065520;28;20198;-78
2023/10/24 10:15:44;;;;;;;4.05;1.50;;;;;;;24.04;71.70;100222.47;5068983;28;20277;-83
2023/10/24 10:18:23;;;;;;;5.78;2.50;;;;;;;23.97;72.41;100223.63;5039285;28;20267;-80
2023/10/24 10:21:01;;;;;;;8.50;2.55;;;;;;;23.90;71.33;100211.53;5079796;28;20241;-84
2023/10/24 10:23:41;;;;;;;5.28;2.40;;;;;;;24.09;71.74;100212.56;5070872;28;20214;-76
2023/10/24 10:26:19;;;;;;;6.18;1.90;;;;;;;24.34;71.94;100214.28;5072619;28;20674;-76
2023/10/24 10:29:06;;;;;;;3.30;1.52;;;;;;;24.52;70.90;100202.97;5073250;28;20202;-78
2023/10/24 10:31:54;;;;;;;3.35;1.52;;;;;;;24.81;69.23;100200.00;5074142;28;20260;-78
2023/10/24 10:34:32;;;;;;;3.70;1.95;;;;;;;24.82;68.55;100199.09;5069191;28;20237;-79
2023/10/24 10:36:59;;;;;;;22.50;1.92;;;;;;;24.81;69.11;100181.44;5072738;28;20210;-77
2023/10/24 10:39:26;;;;;;;2.55;1.38;;;;;;;24.93;66.44;100186.28;5070984;28;20643;-83
2023/10/24 10:41:54;;;;;;;4.15;1.60;;;;;;;25.04;65.40;100176.03;5074493;28;20219;-82
2023/10/24 10:44:38;;;;;;;4.95;2.13;;;;;;;25.30;64.49;100198.81;5071508;28;20195;-82
2023/10/24 10:47:05;;;;;;;4.78;2.42;;;;;;;25.20;65.25;100178.91;5074657;28;20213;-80
2023/10/24 10:49:43;;;;;;;3.38;1.92;;;;;;;25.47;62.53;100193.63;5070140;28;20199;-82
2023/10/24 10:52:20;;;;;;;5.70;1.52;;;;;;;25.64;61.21;100184.94;5072756;28;20205;-80
2023/10/24 10:54:57;;;;;;;7.13;2.70;;;;;;;25.67;59.96;100184.81;5039941;28;20206;-80
2023/10/24 10:57:30;;;;;;;5.20;1.80;;;;;;;25.57;58.88;100178.19;5076631;28;20198;-82
2023/10/24 11:00:04;;;;;;;3.13;1.55;;;;;;;25.82;58.49;100172.63;5075098;28;20229;-84
2023/10/24 11:02:51;;;;;;;3.38;1.38;;;;;;;25.98;58.04;100152.38;5074299;28;20195;-83
2023/10/24 11:05:50;;;;;;;4.75;2.22;;;;;;;26.14;57.39;100154.25;5072199;28;20198;-81
2023/10/24 11:08:23;;;;;;;4.00;2.13;;;;;;;25.97;57.27;100143.53;5071679;28;20191;-83
2023/10/24 11:10:58;;;;;;;2.20;1.02;;;;;;;25.81;56.70;100145.19;5073958;28;20206;-82
2023/10/24 11:13:37;;;;;;;5.47;1.85;;;;;;;25.32;57.20;100109.38;5073439;28;20206;-83
2023/10/24 11:16:06;;;;;;;1.98;1.17;;;;;;;25.19;59.02;100089.59;5076672;28;20235;-82
2023/10/24 11:18:35;;;;;;;1.95;0.82;;;;;;;25.60;57.79;100131.09;5040227;28;20190;-83
2023/10/24 11:21:03;;;;;;;2.40;1.52;;;;;;;25.51;57.32;100133.28;5073528;28;20765;-83
2023/10/24 11:23:31;;;;;;;1.65;1.40;;;;;;;25.28;57.58;100101.59;5073820;28;20235;-84